Time;durP1;ratioP1;P1;durP2;ratioP2;P2;SDS_P1;SDS_P2;PMS_P1;PMS_P2;Temp;Humidity;BMP_temperature;BMP_pressure;BME280_temperature;BME280_humidity;BME280_pressure;Samples;Min_cycle;Max_cycle;Signal;HPM_P1;HPM_P2
2022/03/29 00:00:46;;;;;;;5.68;2.47;;;;;;;23.44;9.27;99090.66;5054024;28;20026;-74
2022/03/29 00:03:11;;;;;;;6.45;2.67;;;;;;;23.44;9.07;99089.84;5054226;28;20367;-74
2022/03/29 00:05:38;;;;;;;7.22;2.70;;;;;;;23.43;9.23;99089.03;5054019;28;20032;-72
2022/03/29 00:08:04;;;;;;;7.57;2.90;;;;;;;23.42;9.40;99081.13;5063025;28;20106;-73
2022/03/29 00:10:30;;;;;;;5.03;2.55;;;;;;;23.38;9.31;99074.69;5056189;28;20032;-74
2022/03/29 00:12:55;;;;;;;7.80;3.00;;;;;;;23.43;9.35;99083.56;5073717;28;20108;-74
2022/03/29 00:15:21;;;;;;;5.55;3.00;;;;;;;23.41;9.46;99091.25;5074283;28;20087;-74
2022/03/29 00:17:47;;;;;;;5.10;2.58;;;;;;;23.40;9.38;99089.66;5073922;28;20501;-74
2022/03/29 00:20:13;;;;;;;5.88;2.85;;;;;;;23.40;9.40;99088.81;5073515;28;20043;-73
2022/03/29 00:22:39;;;;;;;4.15;2.40;;;;;;;23.40;9.18;99095.09;5073524;28;20459;-73
2022/03/29 00:25:05;;;;;;;6.60;2.70;;;;;;;23.37;9.50;99094.88;5075942;28;20029;-73
2022/03/29 00:27:30;;;;;;;6.22;3.13;;;;;;;23.41;9.40;99095.91;5076899;28;20475;-73
2022/03/29 00:29:56;;;;;;;5.07;2.53;;;;;;;23.39;9.40;99090.75;5077371;28;20029;-73
2022/03/29 00:32:21;;;;;;;6.03;2.63;;;;;;;23.41;9.14;99093.19;5077577;28;20029;-73
2022/03/29 00:34:47;;;;;;;5.43;2.65;;;;;;;23.38;9.16;99091.84;5077624;28;20033;-74
2022/03/29 00:37:12;;;;;;;5.72;2.63;;;;;;;23.37;9.39;99095.69;5077026;28;20028;-74
2022/03/29 00:39:38;;;;;;;4.10;2.35;;;;;;;23.37;9.28;99106.59;5077155;28;20032;-73
2022/03/29 00:42:03;;;;;;;3.97;2.35;;;;;;;23.36;9.42;99104.97;5076891;28;20426;-73
2022/03/29 00:44:34;;;;;;;5.82;2.75;;;;;;;23.35;9.17;99114.28;5077078;28;20017;-73
2022/03/29 00:47:00;;;;;;;5.72;2.63;;;;;;;23.37;9.32;99113.97;5076937;28;20498;-74
2022/03/29 00:49:26;;;;;;;5.85;2.92;;;;;;;23.33;9.25;99112.97;5076819;28;20020;-74
2022/03/29 00:51:55;;;;;;;5.15;2.60;;;;;;;23.36;9.19;99117.81;5076923;28;20067;-73
2022/03/29 00:54:21;;;;;;;6.90;3.22;;;;;;;23.37;9.45;99122.13;5076935;28;20028;-73
2022/03/29 00:56:46;;;;;;;5.30;2.63;;;;;;;23.34;9.08;99131.75;5058826;28;20028;-73
2022/03/29 00:59:12;;;;;;;5.38;2.67;;;;;;;23.36;9.08;99126.00;5076441;28;20027;-73
2022/03/29 01:01:37;;;;;;;7.32;3.05;;;;;;;23.36;9.35;99134.16;5076250;28;20040;-73
2022/03/29 01:04:03;;;;;;;6.43;2.72;;;;;;;23.32;9.24;99124.97;5076484;28;20032;-73
2022/03/29 01:06:29;;;;;;;4.57;2.42;;;;;;;23.35;9.26;99135.28;5059290;28;20075;-74
2022/03/29 01:08:55;;;;;;;6.55;2.65;;;;;;;23.36;9.24;99137.69;5076411;28;20491;-73
2022/03/29 01:11:20;;;;;;;5.25;2.78;;;;;;;23.34;9.09;99139.13;5076877;28;20352;-74
2022/03/29 01:13:46;;;;;;;7.63;2.67;;;;;;;23.33;9.19;99143.75;5075524;28;20059;-74
2022/03/29 01:18:55;;;;;;;5.55;2.80;;;;;;;23.33;8.95;99143.75;5061323;28;20387;-73
2022/03/29 01:21:20;;;;;;;6.28;2.83;;;;;;;23.27;9.23;99136.78;5076139;28;20020;-74
2022/03/29 01:23:46;;;;;;;5.45;2.50;;;;;;;23.29;9.32;99148.19;5059324;28;20028;-74
2022/03/29 01:26:12;;;;;;;6.15;2.30;;;;;;;23.29;9.31;99148.19;5076403;28;20455;-74
2022/03/29 01:28:37;;;;;;;5.15;2.80;;;;;;;23.30;9.10;99143.53;5042265;28;20510;-74
2022/03/29 01:31:03;;;;;;;5.10;2.67;;;;;;;23.29;9.19;99136.50;5059033;28;20032;-74
2022/03/29 01:33:28;;;;;;;6.05;2.88;;;;;;;23.31;9.23;99147.91;5076854;28;20033;-74
2022/03/29 01:35:54;;;;;;;5.88;2.70;;;;;;;23.30;9.12;99154.44;5075853;28;20083;-73
2022/03/29 01:38:19;;;;;;;6.40;2.85;;;;;;;23.28;9.23;99154.75;5076158;28;20024;-73
2022/03/29 01:40:44;;;;;;;4.15;2.38;;;;;;;23.31;9.09;99162.31;5057841;28;20028;-73
2022/03/29 01:43:11;;;;;;;6.30;2.80;;;;;;;23.29;9.11;99155.56;5076300;28;20025;-73
2022/03/29 01:45:37;;;;;;;4.80;2.47;;;;;;;23.29;9.06;99159.09;5076181;28;20028;-73
2022/03/29 01:48:02;;;;;;;4.95;2.90;;;;;;;23.26;9.12;99159.69;5076248;28;20035;-73
2022/03/29 01:50:28;;;;;;;5.28;2.63;;;;;;;23.26;9.13;99159.69;5076262;28;20055;-74
2022/03/29 01:52:54;;;;;;;6.82;3.20;;;;;;;23.28;9.09;99154.75;5076014;28;20474;-74
2022/03/29 01:55:20;;;;;;;5.80;2.50;;;;;;;23.27;8.92;99155.88;5076413;28;20016;-74
2022/03/29 01:57:45;;;;;;;6.60;2.22;;;;;;;23.28;8.98;99154.75;5076011;28;20028;-74
2022/03/29 02:02:55;;;;;;;;;;;;;;;23.48;9.07;99152.75;5076052;28;20039;-70
2022/03/29 02:05:21;;;;;;;6.07;2.65;;;;;;;23.32;8.80;99153.06;5075603;28;20263;-73
2022/03/29 02:07:46;;;;;;;5.53;2.40;;;;;;;23.25;8.83;99153.44;5075225;28;20213;-73
2022/03/29 02:10:19;;;;;;;4.82;2.45;;;;;;;23.28;8.97;99162.13;5075020;28;20040;-73
2022/03/29 02:12:44;;;;;;;7.40;2.65;;;;;;;23.26;8.81;99167.88;5075210;28;20478;-73
2022/03/29 02:15:10;;;;;;;4.80;2.42;;;;;;;23.24;9.00;99170.09;5074932;28;20031;-74
2022/03/29 02:17:35;;;;;;;4.53;2.13;;;;;;;23.25;8.96;99179.91;5074819;28;20029;-73
2022/03/29 02:20:01;;;;;;;4.35;2.00;;;;;;;23.24;8.94;99173.63;5075080;28;20078;-74
2022/03/29 02:22:27;;;;;;;6.15;2.50;;;;;;;23.23;8.96;99180.19;5074954;28;20024;-74
2022/03/29 02:24:52;;;;;;;3.70;2.35;;;;;;;23.25;8.87;99175.25;5074758;28;20433;-74
2022/03/29 02:27:18;;;;;;;6.00;2.60;;;;;;;23.21;8.85;99179.66;5074716;28;20021;-74
2022/03/29 02:29:43;;;;;;;5.63;2.53;;;;;;;23.21;9.03;99178.88;5074465;28;20159;-73
2022/03/29 02:32:09;;;;;;;3.40;2.10;;;;;;;23.20;8.93;99183.53;5074698;28;20031;-73
2022/03/29 02:34:34;;;;;;;6.20;2.20;;;;;;;23.23;8.92;99179.38;5074916;28;20063;-73
2022/03/29 02:36:59;;;;;;;6.80;2.58;;;;;;;23.24;8.72;99181.00;5074278;28;20032;-73
2022/03/29 02:39:25;;;;;;;5.38;2.40;;;;;;;23.21;8.75;99178.88;5074356;28;20078;-73
2022/03/29 02:41:50;;;;;;;5.30;1.92;;;;;;;23.20;8.91;99188.97;5074669;28;20043;-73
2022/03/29 02:44:16;;;;;;;3.20;1.83;;;;;;;23.20;8.74;99188.19;5074411;28;20020;-73
2022/03/29 02:46:44;;;;;;;3.60;1.75;;;;;;;23.21;8.96;99189.78;5074770;28;20024;-73
2022/03/29 02:49:09;;;;;;;4.10;2.13;;;;;;;23.22;9.04;99196.84;5073477;28;20020;-73
2022/03/29 02:51:35;;;;;;;3.33;2.03;;;;;;;23.20;8.88;99196.34;5074380;28;20079;-73
2022/03/29 02:54:00;;;;;;;4.55;2.10;;;;;;;23.20;8.90;99188.19;5074418;28;20036;-74
2022/03/29 02:56:26;;;;;;;4.80;1.92;;;;;;;23.19;8.97;99192.00;5074208;28;20090;-73
2022/03/29 02:58:51;;;;;;;5.43;2.00;;;;;;;23.18;8.80;99179.47;5074509;28;20025;-73
2022/03/29 03:01:18;;;;;;;4.75;2.13;;;;;;;23.26;8.92;99181.50;5074641;28;20455;-73
2022/03/29 03:03:43;;;;;;;4.15;2.45;;;;;;;23.26;8.76;99186.94;5074271;28;20024;-73
2022/03/29 03:06:08;;;;;;;4.63;2.50;;;;;;;23.28;8.73;99190.19;5074288;28;20387;-72
2022/03/29 03:08:34;;;;;;;5.32;2.83;;;;;;;23.33;8.56;99192.81;5073916;28;20060;-72
2022/03/29 03:10:59;;;;;;;5.65;2.60;;;;;;;23.34;8.78;99191.72;5074381;28;20056;-74
2022/03/29 03:13:25;;;;;;;7.22;2.85;;;;;;;23.37;8.99;99196.56;5074554;28;20021;-74
2022/03/29 03:15:51;;;;;;;6.30;2.80;;;;;;;23.39;8.96;99186.16;5074786;28;20035;-74
2022/03/29 03:18:16;;;;;;;5.18;2.30;;;;;;;23.46;9.00;99187.66;5075845;28;20021;-74
2022/03/29 03:20:42;;;;;;;5.07;1.92;;;;;;;23.48;8.76;99189.00;5075017;28;20025;-73
2022/03/29 03:23:07;;;;;;;5.80;2.33;;;;;;;23.51;8.88;99195.75;5074609;28;20401;-74
2022/03/29 03:25:32;;;;;;;3.63;1.80;;;;;;;23.53;9.00;99190.81;5074784;28;20486;-74
2022/03/29 04:22:44;;;;;;;0.40;0.35;;;;;;;21.61;10.81;99210.34;5093551;27;20632;-74
2022/03/29 04:25:10;;;;;;;1.17;0.40;;;;;;;22.08;10.50;99214.09;5091800;28;20429;-76
2022/03/29 04:27:35;;;;;;;0.40;0.40;;;;;;;22.54;10.02;99209.91;5091612;28;20026;-75
2022/03/29 04:30:01;;;;;;;0.43;0.40;;;;;;;22.87;9.73;99212.69;5091173;28;20024;-74
2022/03/29 04:32:26;;;;;;;0.30;0.30;;;;;;;23.12;9.52;99213.38;5091618;28;20024;-74
2022/03/29 04:34:52;;;;;;;0.20;0.20;;;;;;;23.29;9.37;99216.34;5091459;28;20459;-76
2022/03/29 04:37:17;;;;;;;0.30;0.30;;;;;;;23.47;9.02;99224.75;5092014;28;20359;-76
2022/03/29 04:39:43;;;;;;;0.30;0.30;;;;;;;23.56;9.17;99215.56;5091406;28;20017;-75
2022/03/29 04:42:08;;;;;;;0.47;0.47;;;;;;;23.69;9.07;99222.13;5101960;28;20386;-75
2022/03/29 04:44:36;;;;;;;0.85;0.50;;;;;;;23.74;9.12;99227.47;5111687;28;20036;-74
2022/03/29 04:47:04;;;;;;;0.63;0.50;;;;;;;23.75;9.11;99226.38;5109844;28;20032;-75
2022/03/29 04:49:29;;;;;;;1.85;0.82;;;;;;;23.62;9.10;99227.16;5111674;28;20028;-75
2022/03/29 04:51:55;;;;;;;1.17;0.63;;;;;;;23.78;9.20;99224.94;5111754;28;20051;-76
2022/03/29 04:54:20;;;;;;;1.27;0.88;;;;;;;23.87;9.05;99242.25;5111061;28;20024;-76
2022/03/29 04:56:45;;;;;;;1.05;0.77;;;;;;;24.18;8.96;99231.50;5113601;28;20393;-75
2022/03/29 04:59:11;;;;;;;1.55;0.80;;;;;;;24.22;8.93;99233.63;5118874;28;20043;-74
2022/03/29 05:01:37;;;;;;;1.00;0.73;;;;;;;24.32;8.62;99230.69;5103748;28;20048;-74
2022/03/29 05:04:04;;;;;;;1.08;0.77;;;;;;;24.33;8.62;99219.41;5116268;28;20031;-74
2022/03/29 05:06:29;;;;;;;1.80;0.90;;;;;;;24.67;8.82;99239.19;5120163;28;20051;-73
2022/03/29 05:08:55;;;;;;;1.42;0.80;;;;;;;24.79;8.75;99238.63;5115373;28;20035;-74
2022/03/29 05:11:20;;;;;;;1.27;0.98;;;;;;;24.80;8.68;99241.06;5120424;28;20043;-74
2022/03/29 05:13:45;;;;;;;2.72;0.93;;;;;;;24.85;8.65;99245.56;5115758;28;20020;-74
2022/03/29 05:16:11;;;;;;;2.08;1.00;;;;;;;24.98;8.53;99241.19;5116831;28;20074;-74
2022/03/29 05:18:36;;;;;;;1.65;0.90;;;;;;;25.15;8.41;99233.06;5112367;28;20012;-74
2022/03/29 05:21:02;;;;;;;1.25;0.82;;;;;;;25.08;8.31;99246.38;5112111;28;20044;-73
2022/03/29 05:23:27;;;;;;;3.65;2.47;;;;;;;24.96;8.74;99241.47;5115446;28;20085;-74
2022/03/29 05:25:53;;;;;;;2.15;1.00;;;;;;;25.09;8.14;99250.72;5116498;28;20500;-74
2022/03/29 05:28:18;;;;;;;1.65;0.98;;;;;;;25.41;7.72;99246.91;5123692;28;20522;-73
2022/03/29 05:30:44;;;;;;;1.58;0.90;;;;;;;25.41;7.96;99248.84;5122544;28;20489;-74
2022/03/29 05:33:17;;;;;;;3.58;1.00;;;;;;;25.47;7.70;99253.03;5122004;28;20386;-74
2022/03/29 05:35:45;;;;;;;2.20;1.08;;;;;;;25.50;7.89;99249.69;5113716;28;20046;-73
2022/03/29 05:38:10;;;;;;;5.10;1.08;;;;;;;25.69;7.67;99246.69;5110965;28;20049;-75
2022/03/29 05:40:36;;;;;;;2.15;1.23;;;;;;;25.77;7.54;99253.34;5113920;28;20016;-72
2022/03/29 05:43:01;;;;;;;2.92;1.40;;;;;;;25.86;7.86;99251.44;5095678;28;20363;-74
2022/03/29 05:45:28;;;;;;;1.75;1.30;;;;;;;25.91;7.50;99250.50;5094146;28;20146;-74
2022/03/29 05:50:39;;;;;;;;;;;;;;;26.35;7.43;99259.59;5097681;28;20043;-73
2022/03/29 05:53:05;;;;;;;3.33;1.00;;;;;;;26.23;7.49;99249.28;5095737;28;19976;-75
2022/03/29 05:55:30;;;;;;;3.10;1.00;;;;;;;26.37;7.31;99254.63;5092955;28;20078;-76
2022/03/29 05:57:56;;;;;;;1.10;0.85;;;;;;;26.41;7.57;99270.09;5093989;28;20096;-75
2022/03/29 06:00:23;;;;;;;1.95;0.93;;;;;;;26.45;7.62;99250.28;5097191;28;20017;-74
2022/03/29 06:02:49;;;;;;;2.85;1.20;;;;;;;26.47;7.13;99248.03;5097934;28;20044;-76
2022/03/29 06:05:14;;;;;;;4.22;1.70;;;;;;;26.45;7.18;99244.81;5093310;28;20036;-75
2022/03/29 06:07:40;;;;;;;4.63;1.92;;;;;;;26.53;7.12;99263.19;5097737;28;20016;-75
2022/03/29 06:10:11;;;;;;;2.92;1.65;;;;;;;26.61;7.35;99265.09;5098165;28;20020;-76
2022/03/29 06:12:38;;;;;;;2.65;1.10;;;;;;;26.52;7.15;99267.84;5098400;28;20055;-75
2022/03/29 06:15:05;;;;;;;1.75;1.00;;;;;;;26.63;7.21;99273.84;5096545;28;20036;-75
2022/03/29 06:17:30;;;;;;;2.45;1.20;;;;;;;26.78;7.01;99267.88;5097332;28;20021;-76
2022/03/29 06:19:56;;;;;;;2.58;1.00;;;;;;;26.74;7.03;99269.66;5097644;28;20044;-74
2022/03/29 06:22:22;;;;;;;1.63;1.00;;;;;;;26.79;7.08;99266.75;5096942;28;20071;-77
2022/03/29 06:24:48;;;;;;;1.40;0.80;;;;;;;26.84;7.23;99264.97;5094022;28;20036;-76
2022/03/29 06:27:13;;;;;;;1.92;0.95;;;;;;;26.59;7.16;99267.38;5094478;28;20047;-77
2022/03/29 06:29:39;;;;;;;2.95;0.77;;;;;;;26.84;7.25;99270.44;5091722;28;20454;-76
2022/03/29 06:32:05;;;;;;;1.00;0.50;;;;;;;26.96;7.45;99267.88;5095013;28;20028;-75
2022/03/29 06:34:30;;;;;;;0.82;0.52;;;;;;;27.01;7.17;99262.22;5095049;28;20024;-76
2022/03/29 06:36:56;;;;;;;0.95;0.43;;;;;;;27.14;7.21;99265.91;5062131;28;20036;-75
2022/03/29 06:39:22;;;;;;;0.68;0.47;;;;;;;27.13;7.13;99256.88;5079754;28;20094;-76
2022/03/29 06:41:47;;;;;;;1.85;0.60;;;;;;;27.15;7.13;99262.84;5078779;28;20064;-75
2022/03/29 06:44:13;;;;;;;1.23;0.43;;;;;;;26.99;7.37;99256.22;5078025;28;20032;-75
2022/03/29 06:46:39;;;;;;;3.05;0.40;;;;;;;27.00;7.30;99263.34;5078199;28;20471;-73
2022/03/29 06:49:06;;;;;;;0.75;0.32;;;;;;;27.06;7.27;99253.81;5078736;28;20081;-73
2022/03/29 06:51:32;;;;;;;0.30;0.30;;;;;;;27.16;7.23;99269.94;5076450;28;20056;-74
2022/03/29 06:53:58;;;;;;;1.45;0.50;;;;;;;27.16;7.13;99269.94;5077194;28;20489;-73
2022/03/29 06:56:25;;;;;;;1.17;0.20;;;;;;;27.07;7.13;99268.34;5057236;28;20033;-73
2022/03/29 06:58:51;;;;;;;0.68;0.30;;;;;;;27.23;7.17;99274.91;5091412;28;20044;-74
2022/03/29 07:01:16;;;;;;;1.85;0.30;;;;;;;27.10;7.02;99281.41;5075795;28;20099;-74
2022/03/29 07:03:42;;;;;;;1.65;0.20;;;;;;;27.10;7.30;99276.72;5074916;28;20076;-73
2022/03/29 07:06:08;;;;;;;0.50;0.30;;;;;;;27.07;7.14;99277.34;5076152;28;20352;-73
2022/03/29 07:08:33;;;;;;;0.50;0.20;;;;;;;27.17;7.14;99281.72;5075228;28;20032;-74
2022/03/29 07:11:21;;;;;;;0.90;0.30;;;;;;;27.22;7.25;99278.78;5075338;28;20024;-74
2022/03/29 07:13:46;;;;;;;0.20;0.20;;;;;;;27.14;6.93;99274.13;5061467;28;20108;-74
2022/03/29 07:16:14;;;;;;;1.00;0.30;;;;;;;27.15;7.02;99278.50;5078706;28;20443;-73
2022/03/29 07:18:40;;;;;;;0.35;0.35;;;;;;;27.29;6.91;99275.59;5075977;28;20029;-76
2022/03/29 07:21:06;;;;;;;0.43;0.22;;;;;;;27.31;7.10;99270.56;5076002;28;20087;-74
2022/03/29 07:23:31;;;;;;;0.50;0.30;;;;;;;27.30;6.87;99277.19;5074669;28;20379;-74
2022/03/29 07:25:57;;;;;;;0.90;0.30;;;;;;;27.23;6.81;99274.09;5076200;28;20035;-74
2022/03/29 07:28:23;;;;;;;0.52;0.30;;;;;;;27.39;6.79;99277.16;5075499;28;20090;-75
2022/03/29 07:30:48;;;;;;;0.45;0.30;;;;;;;27.33;6.94;99279.28;5075685;28;20028;-74
2022/03/29 07:33:15;;;;;;;0.70;0.20;;;;;;;27.39;6.90;99277.97;5075553;28;20443;-75
2022/03/29 07:35:40;;;;;;;0.47;0.30;;;;;;;27.46;6.99;99283.75;5075500;28;20036;-77
2022/03/29 07:38:09;;;;;;;0.30;0.30;;;;;;;27.48;6.88;99280.69;5074402;28;20375;-76
2022/03/29 07:40:35;;;;;;;0.55;0.22;;;;;;;27.40;6.93;99284.25;5076175;28;20463;-76
2022/03/29 07:43:00;;;;;;;0.55;0.20;;;;;;;27.37;6.91;99282.16;5076683;28;20047;-76
2022/03/29 07:45:27;;;;;;;3.80;0.30;;;;;;;26.94;7.02;99229.00;5076189;28;20367;-76
2022/03/29 07:47:56;;;;;;;1.42;0.40;;;;;;;27.03;6.89;99281.91;5074630;28;20049;-75
2022/03/29 07:50:21;;;;;;;0.20;0.20;;;;;;;27.04;6.86;99288.19;5073594;28;20036;-76
2022/03/29 07:52:47;;;;;;;0.30;0.30;;;;;;;27.21;6.57;99285.41;5073274;28;20360;-76
2022/03/29 07:55:13;;;;;;;0.30;0.30;;;;;;;27.21;6.86;99287.34;5075255;28;20028;-76
2022/03/29 07:57:39;;;;;;;0.43;0.30;;;;;;;27.32;6.94;99285.88;5073948;28;20228;-76
2022/03/29 08:00:31;;;;;;;0.20;0.20;;;;;;;27.49;6.61;99288.59;5074411;28;20047;-76
2022/03/29 08:02:52;;;;;;;0.35;0.20;;;;;;;27.35;6.62;99291.53;5074821;28;20159;-76
2022/03/29 08:05:18;;;;;;;0.22;0.22;;;;;;;27.50;6.54;99287.44;5074592;28;20062;-76
2022/03/29 08:07:44;;;;;;;0.20;0.20;;;;;;;27.44;6.31;99290.69;5073988;28;20095;-76
2022/03/29 08:10:10;;;;;;;0.30;0.30;;;;;;;27.38;6.50;99290.06;5074162;28;20111;-75
2022/03/29 08:12:35;;;;;;;1.33;0.30;;;;;;;27.25;6.35;99280.91;5073503;28;20029;-76
2022/03/29 08:15:01;;;;;;;0.73;0.28;;;;;;;27.48;6.22;99297.94;5073373;28;20051;-75
2022/03/29 08:17:26;;;;;;;0.20;0.20;;;;;;;27.39;6.34;99288.97;5073369;28;20082;-75
2022/03/29 08:19:52;;;;;;;2.30;0.38;;;;;;;27.53;6.15;99283.25;5073263;28;20024;-75
2022/03/29 08:22:18;;;;;;;0.30;0.30;;;;;;;27.54;6.30;99291.16;5072858;28;20092;-76
2022/03/29 08:24:43;;;;;;;0.35;0.20;;;;;;;27.54;6.08;99285.69;5073530;28;20028;-75
2022/03/29 08:27:09;;;;;;;0.30;0.30;;;;;;;27.59;6.14;99284.69;5074986;28;20369;-76
2022/03/29 08:29:34;;;;;;;0.20;0.20;;;;;;;27.55;6.19;99289.22;5075413;28;20036;-74
2022/03/29 08:32:00;;;;;;;0.25;0.22;;;;;;;27.63;6.15;99282.06;5073845;28;20025;-74
2022/03/29 08:34:25;;;;;;;0.30;0.30;;;;;;;27.56;6.13;99287.28;5073942;28;20028;-73
2022/03/29 08:36:52;;;;;;;0.85;0.20;;;;;;;27.40;6.05;99296.03;5073040;28;20051;-74
2022/03/29 08:39:17;;;;;;;0.30;0.30;;;;;;;27.43;6.27;99283.63;5074332;28;20021;-74
2022/03/29 08:41:51;;;;;;;1.90;0.30;;;;;;;27.66;6.22;99292.41;5075127;28;20051;-73
2022/03/29 08:44:16;;;;;;;0.73;0.20;;;;;;;27.75;5.99;99289.63;5092281;28;20016;-74
2022/03/29 08:46:42;;;;;;;0.20;0.20;;;;;;;27.70;5.79;99282.41;5093201;28;20326;-74
2022/03/29 08:49:11;;;;;;;0.30;0.20;;;;;;;27.54;5.80;99280.19;5094503;28;20035;-73
2022/03/29 08:51:37;;;;;;;0.25;0.20;;;;;;;27.70;5.95;99279.66;5091445;28;20351;-74
2022/03/29 08:54:03;;;;;;;1.75;0.30;;;;;;;27.73;5.79;99284.47;5093658;28;20020;-74
2022/03/29 08:56:28;;;;;;;0.35;0.30;;;;;;;27.76;5.63;99286.56;5092591;28;20073;-74
2022/03/29 08:58:54;;;;;;;0.20;0.20;;;;;;;27.58;5.69;99279.50;5092920;28;20044;-74
2022/03/29 09:01:21;;;;;;;0.20;0.20;;;;;;;27.66;5.53;99290.47;5091442;28;20039;-74
2022/03/29 09:04:02;;;;;;;0.30;0.30;;;;;;;27.59;5.82;99284.69;5091146;28;20103;-74
2022/03/29 09:06:29;;;;;;;2.78;0.40;;;;;;;27.56;5.28;99276.28;5092462;28;20028;-74
2022/03/29 09:08:54;;;;;;;0.52;0.30;;;;;;;27.52;5.43;99287.94;5095316;28;20081;-73
2022/03/29 09:11:21;;;;;;;0.28;0.20;;;;;;;27.49;5.52;99282.28;5096250;28;20036;-74
2022/03/29 09:13:47;;;;;;;0.57;0.30;;;;;;;27.39;5.54;99286.22;5095139;28;20044;-74
2022/03/29 09:16:34;;;;;;;0.95;0.20;;;;;;;27.37;5.48;99284.91;5097431;28;20031;-74
2022/03/29 09:19:00;;;;;;;0.73;0.20;;;;;;;27.28;5.48;99291.22;5097482;28;20032;-73
2022/03/29 09:21:25;;;;;;;0.30;0.30;;;;;;;27.14;5.60;99293.31;5096769;28;20055;-74
2022/03/29 09:24:04;;;;;;;0.22;0.22;;;;;;;27.16;5.79;99283.66;5099041;28;20050;-74
2022/03/29 09:26:32;;;;;;;0.30;0.30;;;;;;;27.17;5.87;99298.97;5096917;28;20024;-76
2022/03/29 09:28:58;;;;;;;2.20;0.20;;;;;;;27.13;5.72;99291.69;5098091;28;20031;-76
2022/03/29 09:31:26;;;;;;;0.20;0.20;;;;;;;27.08;5.85;99292.69;5095939;28;20024;-76
2022/03/29 09:33:52;;;;;;;0.20;0.20;;;;;;;27.08;5.75;99306.41;5096998;28;20028;-75
2022/03/29 09:36:21;;;;;;;0.20;0.20;;;;;;;27.04;5.56;99299.13;5095806;28;20024;-75
2022/03/29 09:38:51;;;;;;;0.20;0.20;;;;;;;27.02;5.73;99295.91;5096335;28;20039;-75
2022/03/29 09:41:28;;;;;;;0.30;0.20;;;;;;;27.00;5.69;99299.00;5097692;28;20062;-74
2022/03/29 09:44:05;;;;;;;0.20;0.20;;;;;;;26.96;5.71;99298.81;5079519;28;20025;-75
2022/03/29 09:46:30;;;;;;;0.17;0.17;;;;;;;26.92;5.58;99288.81;5074544;28;20540;-75
2022/03/29 09:49:00;;;;;;;0.70;0.20;;;;;;;26.86;5.70;99303.84;5076461;28;20028;-75
2022/03/29 09:51:27;;;;;;;0.20;0.20;;;;;;;26.86;5.71;99292.88;5076066;28;20027;-75
2022/03/29 09:53:55;;;;;;;0.80;0.20;;;;;;;26.85;5.97;99292.03;5075897;28;20570;-75
2022/03/29 09:56:25;;;;;;;1.10;0.30;;;;;;;26.82;5.79;99297.38;5076653;28;20036;-75
2022/03/29 09:59:11;;;;;;;1.45;0.20;;;;;;;26.89;5.96;99297.69;5076008;28;20104;-75
2022/03/29 10:01:57;;;;;;;0.45;0.28;;;;;;;26.81;5.60;99298.53;5076952;28;20142;-75
2022/03/29 10:04:25;;;;;;;1.48;0.28;;;;;;;26.80;5.83;99300.44;5074948;28;20038;-76
2022/03/29 10:07:20;;;;;;;0.20;0.20;;;;;;;26.78;5.81;99286.25;5087723;28;20024;-76
2022/03/29 10:09:45;;;;;;;0.30;0.30;;;;;;;26.77;5.76;99296.41;5058991;28;20036;-76
2022/03/29 10:12:12;;;;;;;0.20;0.20;;;;;;;26.68;5.65;99286.56;5056854;28;20043;-75
2022/03/29 10:14:40;;;;;;;0.22;0.22;;;;;;;26.71;5.98;99289.47;5073379;28;20082;-74
2022/03/29 10:17:07;;;;;;;2.72;0.20;;;;;;;26.74;5.82;99297.06;5073380;28;20059;-75
2022/03/29 10:19:33;;;;;;;0.55;0.30;;;;;;;26.69;5.76;99294.47;5056615;28;20427;-76
2022/03/29 10:21:59;;;;;;;1.55;0.30;;;;;;;26.68;5.76;99292.88;5065120;28;20068;-74
2022/03/29 10:24:25;;;;;;;0.20;0.20;;;;;;;26.58;5.58;99293.16;5073769;28;20031;-74
2022/03/29 10:26:51;;;;;;;0.20;0.20;;;;;;;26.67;5.72;99301.41;5072861;28;20109;-73
2022/03/29 10:29:17;;;;;;;2.40;0.30;;;;;;;26.57;6.02;99297.81;5056273;28;20507;-74
2022/03/29 10:31:53;;;;;;;0.68;0.30;;;;;;;26.54;5.67;99301.19;5073137;28;20134;-72
2022/03/29 10:34:26;;;;;;;0.20;0.20;;;;;;;26.51;5.86;99301.03;5072551;28;20040;-73
2022/03/29 10:37:14;;;;;;;1.00;0.20;;;;;;;26.53;5.74;99290.59;5055776;28;20035;-74
2022/03/29 10:40:01;;;;;;;0.93;0.30;;;;;;;26.61;6.05;99297.97;5073025;28;20108;-73
2022/03/29 10:42:35;;;;;;;2.08;0.40;;;;;;;26.60;5.88;99297.19;5061545;28;20119;-72
2022/03/29 10:45:19;;;;;;;1.70;0.30;;;;;;;26.65;6.15;99299.00;5092383;28;20024;-73
2022/03/29 10:48:09;;;;;;;1.38;0.30;;;;;;;26.63;6.11;99304.00;5092778;28;20354;-74
2022/03/29 10:50:50;;;;;;;0.52;0.30;;;;;;;26.63;6.04;99301.25;5085637;28;20039;-73
2022/03/29 10:53:40;;;;;;;0.57;0.30;;;;;;;26.93;5.99;99299.47;5092855;28;20363;-74
2022/03/29 10:56:08;;;;;;;0.95;0.30;;;;;;;26.99;5.50;99305.59;5093193;28;20039;-74
2022/03/29 10:58:33;;;;;;;0.85;0.30;;;;;;;27.32;5.54;99288.63;5094317;28;20133;-74
2022/03/29 11:01:12;;;;;;;0.98;0.32;;;;;;;27.69;5.31;99286.25;5075728;28;20040;-72
2022/03/29 11:03:39;;;;;;;2.55;0.30;;;;;;;27.86;5.21;99296.38;5096458;28;20020;-74
2022/03/29 11:06:11;;;;;;;0.20;0.20;;;;;;;27.76;5.28;99297.53;5077944;28;20036;-75
2022/03/29 11:08:40;;;;;;;1.13;0.30;;;;;;;27.95;5.08;99296.34;5094359;28;20028;-75
2022/03/29 11:11:07;;;;;;;0.20;0.20;;;;;;;27.96;5.04;99298.78;5094920;28;20020;-75
2022/03/29 11:13:38;;;;;;;0.47;0.20;;;;;;;27.83;5.20;99283.31;5094828;28;20044;-76
2022/03/29 11:16:25;;;;;;;0.20;0.20;;;;;;;27.86;5.19;99291.69;5094954;28;20020;-75
2022/03/29 11:18:51;;;;;;;0.20;0.20;;;;;;;27.79;5.15;99296.09;5094547;28;20350;-75
2022/03/29 11:21:37;;;;;;;0.55;0.40;;;;;;;27.56;5.15;99293.56;5092166;28;20055;-76
2022/03/29 11:24:04;;;;;;;0.20;0.20;;;;;;;27.42;5.35;99293.75;5094166;28;20130;-75
2022/03/29 11:26:30;;;;;;;0.15;0.15;;;;;;;27.48;5.21;99292.47;5094467;28;20055;-74
2022/03/29 11:28:57;;;;;;;1.02;0.20;;;;;;;27.47;5.24;99287.31;5093122;28;20411;-74
2022/03/29 11:31:23;;;;;;;0.20;0.20;;;;;;;27.40;5.21;99287.00;5093389;28;20038;-75
2022/03/29 11:33:49;;;;;;;0.38;0.30;;;;;;;27.30;5.33;99285.41;5094059;28;20055;-75
2022/03/29 11:36:19;;;;;;;1.73;1.00;;;;;;;27.27;5.22;99289.59;5093765;28;20028;-75
2022/03/29 11:38:44;;;;;;;1.58;0.80;;;;;;;27.22;5.29;99284.28;5093642;28;20100;-74
2022/03/29 11:41:27;;;;;;;1.02;0.70;;;;;;;27.22;5.28;99288.97;5094904;28;20024;-74
2022/03/29 11:44:00;;;;;;;2.47;1.08;;;;;;;27.17;5.34;99282.50;5078345;28;20044;-75
2022/03/29 11:46:42;;;;;;;1.27;0.80;;;;;;;27.09;5.32;99294.28;5074441;28;20466;-75
2022/03/29 11:49:07;;;;;;;2.58;0.70;;;;;;;27.04;5.33;99294.44;5072663;28;20025;-75
2022/03/29 11:51:33;;;;;;;0.70;0.50;;;;;;;27.03;5.55;99292.84;5074802;28;20021;-75
2022/03/29 11:53:58;;;;;;;0.40;0.40;;;;;;;26.98;5.49;99284.81;5073038;28;20474;-75
2022/03/29 11:56:24;;;;;;;0.98;0.43;;;;;;;26.92;5.31;99286.91;5075334;28;20470;-75
2022/03/29 11:58:51;;;;;;;0.40;0.40;;;;;;;26.85;5.39;99285.78;5083665;28;20032;-74
2022/03/29 12:01:20;;;;;;;0.63;0.50;;;;;;;26.73;5.47;99273.53;5078128;28;20121;-75
2022/03/29 12:03:47;;;;;;;0.55;0.43;;;;;;;26.66;5.54;99273.19;5063959;28;20038;-73
2022/03/29 12:06:13;;;;;;;0.55;0.30;;;;;;;26.68;5.54;99283.84;5083606;28;20024;-73
2022/03/29 12:08:46;;;;;;;1.88;0.30;;;;;;;26.69;5.60;99283.50;5085073;28;20041;-73
2022/03/29 12:11:12;;;;;;;0.50;0.40;;;;;;;26.57;5.65;99288.81;5089348;28;20043;-73
2022/03/29 12:13:38;;;;;;;3.10;0.32;;;;;;;26.54;5.42;99281.22;5091393;28;20042;-71
2022/03/29 12:16:23;;;;;;;0.30;0.30;;;;;;;26.49;5.40;99278.63;5095679;28;20024;-73
2022/03/29 12:18:49;;;;;;;1.38;0.70;;;;;;;26.46;5.53;99279.28;5095856;28;20084;-71
2022/03/29 12:21:15;;;;;;;2.58;1.38;;;;;;;26.40;5.41;99281.38;5094848;28;20053;-73
2022/03/29 12:23:41;;;;;;;3.42;1.52;;;;;;;26.34;5.68;99272.50;5094506;28;20028;-73
2022/03/29 12:26:09;;;;;;;2.65;1.40;;;;;;;26.30;5.78;99271.53;5084298;28;20021;-72
2022/03/29 12:28:34;;;;;;;3.85;2.13;;;;;;;26.25;5.89;99277.19;5080366;28;20029;-73
2022/03/29 12:31:00;;;;;;;6.18;2.10;;;;;;;26.38;5.63;99270.72;5080779;28;20030;-73
2022/03/29 12:33:26;;;;;;;6.22;2.40;;;;;;;26.41;5.74;99267.34;5083305;28;20358;-73
2022/03/29 12:36:07;;;;;;;5.05;2.00;;;;;;;26.45;5.61;99267.50;5088574;28;20039;-74
2022/03/29 12:39:00;;;;;;;6.10;2.33;;;;;;;26.33;5.78;99254.44;5089743;28;20012;-74
2022/03/29 12:41:32;;;;;;;6.75;2.42;;;;;;;26.28;5.68;99257.34;5052199;28;20037;-74
2022/03/29 12:43:58;;;;;;;4.05;2.08;;;;;;;26.38;5.73;99250.75;5057078;28;20041;-74
2022/03/29 12:46:23;;;;;;;6.90;3.22;;;;;;;26.34;5.86;99260.75;5058672;28;20037;-75